createdAt,value
2023-03-28T00:00:52.185Z,39.03
2023-03-28T00:03:22.488Z,39.38
2023-03-28T00:05:50.908Z,39.63
2023-03-28T00:08:20.689Z,39.00
2023-03-28T00:10:48.525Z,39.10
2023-03-28T00:13:19.809Z,40.10
2023-03-28T00:15:48.243Z,39.28
2023-03-28T00:18:16.093Z,39.70
2023-03-28T00:20:45.322Z,39.03
2023-03-28T00:23:13.699Z,40.00
2023-03-28T00:25:42.072Z,39.55
2023-03-28T00:28:10.330Z,39.28
2023-03-28T00:30:38.403Z,40.50
2023-03-28T00:33:06.547Z,39.30
2023-03-28T00:35:35.829Z,39.30
2023-03-28T00:38:05.044Z,38.80
2023-03-28T00:40:38.528Z,39.50
2023-03-28T00:43:06.574Z,40.47
2023-03-28T00:45:34.848Z,39.60
2023-03-28T00:48:14.621Z,38.90
2023-03-28T00:50:46.805Z,39.30
2023-03-28T00:53:18.595Z,38.47
2023-03-28T00:55:50.124Z,38.90
2023-03-28T00:58:23.875Z,39.03
2023-03-28T01:00:52.014Z,39.40
2023-03-28T01:03:22.452Z,39.47
2023-03-28T01:05:51.047Z,39.80
2023-03-28T01:08:22.350Z,40.30
2023-03-28T01:10:50.695Z,39.40
2023-03-28T01:13:21.517Z,39.50
2023-03-28T01:15:51.246Z,39.10
2023-03-28T01:18:23.838Z,39.13
2023-03-28T01:21:25.026Z,39.55
2023-03-28T01:24:44.977Z,39.90
2023-03-28T01:27:17.761Z,39.80
2023-03-28T01:30:22.489Z,40.65
2023-03-28T01:33:22.778Z,41.10
2023-03-28T01:36:34.477Z,40.10
2023-03-28T01:39:12.729Z,39.10
2023-03-28T01:41:46.946Z,39.58
2023-03-28T01:44:23.120Z,39.00
2023-03-28T01:47:00.116Z,39.08
2023-03-28T01:49:34.706Z,39.33
2023-03-28T01:52:09.201Z,39.70
2023-03-28T01:54:45.323Z,39.95
2023-03-28T01:57:18.931Z,39.90
2023-03-28T01:59:51.710Z,40.90
2023-03-28T02:02:27.180Z,39.30
2023-03-28T02:04:57.891Z,39.03
2023-03-28T02:07:27.061Z,39.05
2023-03-28T02:09:57.972Z,38.92
2023-03-28T02:12:30.860Z,39.88
2023-03-28T02:15:04.088Z,39.63
2023-03-28T02:17:36.003Z,39.50
2023-03-28T02:20:11.438Z,40.30
2023-03-28T02:22:45.964Z,39.30
2023-03-28T02:25:15.480Z,38.83
2023-03-28T02:27:45.862Z,39.60
2023-03-28T02:30:14.181Z,40.50
2023-03-28T02:32:43.939Z,39.25
2023-03-28T02:35:11.921Z,40.13
2023-03-28T02:37:49.896Z,39.50
2023-03-28T02:40:34.261Z,39.92
2023-03-28T02:43:44.744Z,40.30
2023-03-28T02:46:28.211Z,39.83
2023-03-28T02:49:29.905Z,42.23
2023-03-28T02:52:09.316Z,40.30
2023-03-28T02:54:42.093Z,41.50
2023-03-28T02:57:18.142Z,40.50
2023-03-28T02:59:49.485Z,39.53
2023-03-28T03:02:19.000Z,40.58
2023-03-28T03:04:47.519Z,40.63
2023-03-28T03:07:17.934Z,39.90
2023-03-28T03:09:46.541Z,39.10
2023-03-28T03:12:15.780Z,40.40
2023-03-28T03:14:44.045Z,39.72
2023-03-28T03:17:11.849Z,39.70
2023-03-28T03:19:40.345Z,39.25
2023-03-28T03:22:10.476Z,39.65
2023-03-28T03:24:50.830Z,38.90
2023-03-28T03:27:21.080Z,38.72
2023-03-28T03:29:49.156Z,39.03
2023-03-28T03:32:16.989Z,39.78
2023-03-28T03:34:44.828Z,40.88
2023-03-28T03:37:12.627Z,39.72
2023-03-28T03:39:40.446Z,40.33
2023-03-28T03:42:08.279Z,39.97
2023-03-28T03:44:37.524Z,39.40
2023-03-28T03:47:05.876Z,39.70
2023-03-28T03:49:33.738Z,39.45
2023-03-28T03:52:01.573Z,39.87
2023-03-28T03:54:29.458Z,38.95
2023-03-28T03:56:57.316Z,39.70
2023-03-28T03:59:25.330Z,40.00
2023-03-28T04:01:55.654Z,38.90
2023-03-28T04:04:23.896Z,40.10
2023-03-28T04:06:51.715Z,39.05
2023-03-28T04:09:20.533Z,38.92
2023-03-28T04:11:48.434Z,38.75
2023-03-28T04:14:16.429Z,38.97
2023-03-28T04:16:44.660Z,38.25
2023-03-28T04:19:14.291Z,42.22
2023-03-28T04:21:43.636Z,39.90
2023-03-28T04:24:15.489Z,38.63
2023-03-28T04:26:43.460Z,38.80
2023-03-28T04:29:12.173Z,40.83
2023-03-28T04:31:40.396Z,39.75
2023-03-28T04:34:08.818Z,38.50
2023-03-28T04:36:41.021Z,38.53
2023-03-28T04:39:09.148Z,39.58
2023-03-28T04:41:37.109Z,40.67
2023-03-28T04:44:04.922Z,40.13
2023-03-28T04:46:32.873Z,39.50
2023-03-28T04:49:00.666Z,41.40
2023-03-28T04:51:28.551Z,41.67
2023-03-28T04:53:57.750Z,41.53
2023-03-28T04:56:25.676Z,39.83
2023-03-28T04:58:53.494Z,40.05
2023-03-28T05:01:22.497Z,39.85
2023-03-28T05:03:50.413Z,39.08
2023-03-28T05:06:18.421Z,38.90
2023-03-28T05:08:46.244Z,40.30
2023-03-28T05:11:15.481Z,42.40
2023-03-28T05:13:43.403Z,41.03
2023-03-28T05:16:11.254Z,41.05
2023-03-28T05:18:39.285Z,42.65
2023-03-28T05:21:07.535Z,40.03
2023-03-28T05:23:35.542Z,38.92
2023-03-28T05:26:03.496Z,39.80
2023-03-28T05:28:32.800Z,38.70
2023-03-28T05:31:00.761Z,38.70
2023-03-28T05:33:29.801Z,38.47
2023-03-28T05:35:57.701Z,39.53
2023-03-28T05:38:25.560Z,38.67
2023-03-28T05:40:53.424Z,38.15
2023-03-28T05:43:21.256Z,37.58
2023-03-28T05:45:50.466Z,37.47
2023-03-28T05:48:18.964Z,39.83
2023-03-28T05:50:48.869Z,38.00
2023-03-28T05:53:16.846Z,38.40
2023-03-28T05:55:44.650Z,38.88
2023-03-28T05:58:12.493Z,38.70
2023-03-28T06:00:40.335Z,39.50
2023-03-28T06:03:09.794Z,38.30
2023-03-28T06:05:45.655Z,40.00
2023-03-28T06:08:13.482Z,39.30
2023-03-28T06:10:41.975Z,38.50
2023-03-28T06:13:09.782Z,38.20
2023-03-28T06:15:37.889Z,38.00
2023-03-28T06:18:05.932Z,38.53
2023-03-28T06:20:35.354Z,38.40
2023-03-28T06:23:04.072Z,37.65
2023-03-28T06:25:31.961Z,38.80
2023-03-28T06:27:59.834Z,38.60
2023-03-28T06:30:27.799Z,38.20
2023-03-28T06:32:55.735Z,37.83
2023-03-28T06:35:23.576Z,38.05
2023-03-28T06:37:52.728Z,38.40
2023-03-28T06:40:21.041Z,39.72
2023-03-28T06:42:48.898Z,38.50
2023-03-28T06:45:16.743Z,38.55
2023-03-28T06:47:45.375Z,39.40
2023-03-28T06:50:13.442Z,38.88
2023-03-28T06:52:41.484Z,39.30
2023-03-28T06:55:11.642Z,39.13
2023-03-28T06:57:39.930Z,39.47
2023-03-28T07:00:09.211Z,39.67
2023-03-28T07:02:37.137Z,39.53
2023-03-28T07:05:05.260Z,38.38
2023-03-28T07:07:33.276Z,38.78
2023-03-28T07:10:01.147Z,38.47
2023-03-28T07:12:30.602Z,38.60
2023-03-28T07:14:58.676Z,39.30
2023-03-28T07:17:29.880Z,38.75
2023-03-28T07:19:57.689Z,39.33
2023-03-28T07:22:25.513Z,39.30
2023-03-28T07:24:53.329Z,39.10
2023-03-28T07:27:21.925Z,39.45
2023-03-28T07:29:51.485Z,39.00
2023-03-28T07:32:19.441Z,39.38
2023-03-28T07:34:47.504Z,39.13
2023-03-28T07:37:15.813Z,39.20
2023-03-28T07:39:43.786Z,39.47
2023-03-28T07:42:12.491Z,39.00
2023-03-28T07:44:42.366Z,39.28
2023-03-28T07:47:11.992Z,39.40
2023-03-28T07:49:40.947Z,39.53
2023-03-28T07:52:09.140Z,39.42
2023-03-28T07:54:37.302Z,39.05
2023-03-28T07:57:05.779Z,39.10
2023-03-28T07:59:34.137Z,41.33
2023-03-28T08:02:02.590Z,39.97
2023-03-28T08:04:32.023Z,39.72
2023-03-28T08:07:00.212Z,39.70
2023-03-28T08:09:28.395Z,40.90
2023-03-28T08:11:56.198Z,39.50
2023-03-28T08:14:24.055Z,39.70
2023-03-28T08:16:52.049Z,39.42
2023-03-28T08:19:19.917Z,42.00
2023-03-28T08:21:49.137Z,40.17
2023-03-28T08:24:25.449Z,40.10
2023-03-28T08:27:01.550Z,39.90
2023-03-28T08:29:29.448Z,40.40
2023-03-28T08:31:57.516Z,40.65
2023-03-28T08:34:25.786Z,40.30
2023-03-28T08:36:55.537Z,40.40
2023-03-28T08:39:24.244Z,40.60
2023-03-28T08:42:09.270Z,41.20
2023-03-28T08:44:50.798Z,40.60
2023-03-28T08:47:23.149Z,40.80
2023-03-28T08:49:57.621Z,40.67
2023-03-28T08:52:27.215Z,40.60
2023-03-28T08:54:59.744Z,40.80
2023-03-28T08:57:30.543Z,41.00
2023-03-28T09:00:08.863Z,40.80
2023-03-28T09:02:37.001Z,40.90
2023-03-28T09:05:21.882Z,41.30
2023-03-28T09:07:56.985Z,40.90
2023-03-28T09:10:29.844Z,41.27
2023-03-28T09:13:10.266Z,41.10
2023-03-28T09:15:48.816Z,41.67
2023-03-28T09:18:28.696Z,42.17
2023-03-28T09:21:03.221Z,41.50
2023-03-28T09:23:50.046Z,41.60
2023-03-28T09:26:22.102Z,41.90
2023-03-28T09:28:55.121Z,42.10
2023-03-28T09:31:28.651Z,41.30
2023-03-28T09:33:58.865Z,42.13
2023-03-28T09:36:41.262Z,42.00
2023-03-28T09:39:23.087Z,42.00
2023-03-28T09:41:54.924Z,41.00
2023-03-28T09:44:27.894Z,41.70
2023-03-28T09:46:57.793Z,41.75
2023-03-28T09:49:27.134Z,42.20
2023-03-28T09:51:57.426Z,41.60
2023-03-28T09:54:30.736Z,41.80
2023-03-28T09:57:01.731Z,42.30
2023-03-28T09:59:31.428Z,43.45
2023-03-28T10:02:02.268Z,41.90
2023-03-28T10:04:36.760Z,41.83
2023-03-28T10:07:33.689Z,41.30
2023-03-28T10:10:17.691Z,42.00
2023-03-28T10:12:48.872Z,41.70
2023-03-28T10:15:40.424Z,41.40
2023-03-28T10:18:08.725Z,43.00
2023-03-28T10:20:38.500Z,42.60
2023-03-28T10:23:06.666Z,42.40
2023-03-28T10:25:39.197Z,42.00
2023-03-28T10:28:13.868Z,42.72
2023-03-28T10:30:42.693Z,42.50
2023-03-28T10:33:35.466Z,42.50
2023-03-28T10:36:05.664Z,42.63
2023-03-28T10:38:37.537Z,42.90
2023-03-28T10:41:10.756Z,42.10
2023-03-28T10:43:40.698Z,42.67
2023-03-28T10:46:14.122Z,42.40
2023-03-28T10:48:46.882Z,43.55
2023-03-28T10:51:21.854Z,42.42
2023-03-28T10:54:14.746Z,42.83
2023-03-28T10:56:52.435Z,42.92
2023-03-28T10:59:39.279Z,43.83
2023-03-28T11:02:31.899Z,44.20
2023-03-28T11:05:04.894Z,42.10
2023-03-28T11:07:39.377Z,43.10
2023-03-28T11:10:16.912Z,42.53
2023-03-28T11:12:58.464Z,42.50
2023-03-28T11:15:31.954Z,42.35
2023-03-28T11:18:12.094Z,42.33
2023-03-28T11:20:48.158Z,42.05
2023-03-28T11:23:38.100Z,43.47
2023-03-28T11:26:10.387Z,43.10
2023-03-28T11:28:53.524Z,43.90
2023-03-28T11:31:27.290Z,42.10
2023-03-28T11:34:01.640Z,42.15
2023-03-28T11:36:34.869Z,42.60
2023-03-28T11:39:07.482Z,44.80
2023-03-28T11:41:40.353Z,42.20
2023-03-28T11:44:17.526Z,43.00
2023-03-28T11:46:52.421Z,42.90
2023-03-28T11:49:25.338Z,42.40
2023-03-28T11:52:00.170Z,42.53
2023-03-28T11:54:34.595Z,42.38
2023-03-28T11:57:07.279Z,43.13
2023-03-28T11:59:43.434Z,42.85
2023-03-28T12:02:22.815Z,42.50
2023-03-28T12:04:55.711Z,42.47
2023-03-28T12:07:30.133Z,42.70
2023-03-28T12:10:08.766Z,43.83
2023-03-28T12:12:39.795Z,45.13
2023-03-28T12:15:15.311Z,43.22
2023-03-28T12:17:46.389Z,43.38
2023-03-28T12:20:20.079Z,42.47
2023-03-28T12:22:54.115Z,43.87
2023-03-28T12:25:31.074Z,44.10
2023-03-28T12:28:04.958Z,43.10
2023-03-28T12:30:40.401Z,42.70
2023-03-28T12:33:20.147Z,43.03
2023-03-28T12:35:53.740Z,42.53
2023-03-28T12:38:32.209Z,42.70
2023-03-28T12:41:03.766Z,42.40
2023-03-28T12:43:43.656Z,43.42
2023-03-28T12:46:16.252Z,43.58
2023-03-28T12:48:47.598Z,44.70
2023-03-28T12:51:18.890Z,42.70
2023-03-28T12:54:00.696Z,42.70
2023-03-28T12:56:28.945Z,42.80
2023-03-28T12:58:57.588Z,43.97
2023-03-28T13:01:43.800Z,43.38
2023-03-28T13:04:22.136Z,43.53
2023-03-28T13:06:59.434Z,42.80
2023-03-28T13:09:51.512Z,44.92
2023-03-28T13:12:31.017Z,43.65
2023-03-28T13:15:02.071Z,44.40
2023-03-28T13:17:37.799Z,42.60
2023-03-28T13:20:26.622Z,42.80
2023-03-28T13:23:00.431Z,43.00
2023-03-28T13:25:32.239Z,43.90
2023-03-28T13:28:02.169Z,43.80
2023-03-28T13:30:32.117Z,42.80
2023-03-28T13:33:04.003Z,43.00
2023-03-28T13:35:46.185Z,43.80
2023-03-28T13:38:16.186Z,43.00
2023-03-28T13:40:51.179Z,44.10
2023-03-28T13:43:27.500Z,43.22
2023-03-28T13:45:59.289Z,43.38
2023-03-28T13:48:34.289Z,43.30
2023-03-28T13:51:06.779Z,44.23
2023-03-28T13:53:47.115Z,43.38
2023-03-28T13:56:21.780Z,43.40
2023-03-28T13:58:51.264Z,43.90
2023-03-28T14:01:21.135Z,44.33
2023-03-28T14:03:50.849Z,44.25
2023-03-28T14:06:26.978Z,44.22
2023-03-28T14:08:57.044Z,44.70
2023-03-28T14:11:30.361Z,44.17
2023-03-28T14:14:08.840Z,44.25
2023-03-28T14:16:38.217Z,44.55
2023-03-28T14:19:09.868Z,44.83
2023-03-28T14:21:37.977Z,44.40
2023-03-28T14:24:08.488Z,43.95
2023-03-28T14:26:37.516Z,44.88
2023-03-28T14:29:08.196Z,44.45
2023-03-28T14:31:38.299Z,42.83
2023-03-28T14:34:17.860Z,44.10
2023-03-28T14:36:58.790Z,43.35
2023-03-28T14:39:28.223Z,44.63
2023-03-28T14:41:57.206Z,44.30
2023-03-28T14:44:25.717Z,44.63
2023-03-28T14:46:57.287Z,44.33
2023-03-28T14:49:27.880Z,45.30
2023-03-28T14:51:58.914Z,44.47
2023-03-28T14:54:29.455Z,42.67
2023-03-28T14:56:58.792Z,43.30
2023-03-28T14:59:34.588Z,43.50
2023-03-28T15:02:05.586Z,43.70
2023-03-28T15:04:36.002Z,44.00
2023-03-28T15:07:04.582Z,43.53
2023-03-28T15:09:34.638Z,45.17
2023-03-28T15:12:06.630Z,43.40
2023-03-28T15:14:39.827Z,43.20
2023-03-28T15:17:08.047Z,42.90
2023-03-28T15:19:41.083Z,43.05
2023-03-28T15:22:13.905Z,43.22
2023-03-28T15:24:42.379Z,42.70
2023-03-28T15:27:24.011Z,44.10
2023-03-28T15:29:52.449Z,43.08
2023-03-28T15:32:21.229Z,43.65
2023-03-28T15:34:58.523Z,43.00
2023-03-28T15:37:27.378Z,42.80
2023-03-28T15:39:55.557Z,42.80
2023-03-28T15:42:35.322Z,42.50
2023-03-28T15:45:30.454Z,43.53
2023-03-28T15:47:58.632Z,43.35
2023-03-28T15:50:33.232Z,44.55
2023-03-28T15:53:03.945Z,42.50
2023-03-28T15:55:32.473Z,42.60
2023-03-28T15:58:00.686Z,42.60
2023-03-28T16:00:46.312Z,42.80
2023-03-28T16:03:34.227Z,42.60
2023-03-28T16:06:30.728Z,41.90
2023-03-28T16:09:16.625Z,45.50
2023-03-28T16:11:45.655Z,42.75
2023-03-28T16:14:17.314Z,43.10
2023-03-28T16:16:46.308Z,43.30
2023-03-28T16:19:21.509Z,42.80
2023-03-28T16:21:51.149Z,42.10
2023-03-28T16:24:19.644Z,42.38
2023-03-28T16:26:47.970Z,42.30
2023-03-28T16:29:16.014Z,42.42
2023-03-28T16:31:44.381Z,43.40
2023-03-28T16:34:12.275Z,43.50
2023-03-28T16:36:40.100Z,42.13
2023-03-28T16:39:09.373Z,44.58
2023-03-28T16:41:37.283Z,42.65
2023-03-28T16:44:05.710Z,42.50
2023-03-28T16:46:35.197Z,43.40
2023-03-28T16:49:03.165Z,43.90
2023-03-28T16:51:31.219Z,43.00
2023-03-28T16:53:59.244Z,42.85
2023-03-28T16:56:30.108Z,43.20
2023-03-28T16:58:58.041Z,44.30
2023-03-28T17:01:26.051Z,43.10
2023-03-28T17:03:55.568Z,43.05
2023-03-28T17:06:23.563Z,43.13
2023-03-28T17:08:53.178Z,44.58
2023-03-28T17:11:21.749Z,42.30
2023-03-28T17:13:52.609Z,42.00
2023-03-28T17:16:20.544Z,42.60
2023-03-28T17:18:48.599Z,44.20
2023-03-28T17:21:18.259Z,42.80
2023-03-28T17:23:47.799Z,42.80
2023-03-28T17:26:17.053Z,43.42
2023-03-28T17:28:45.715Z,43.90
2023-03-28T17:31:17.451Z,42.55
2023-03-28T17:33:46.064Z,43.72
2023-03-28T17:36:21.203Z,43.40
2023-03-28T17:38:50.289Z,44.00
2023-03-28T17:41:18.300Z,42.90
2023-03-28T17:43:46.640Z,41.83
2023-03-28T17:46:16.421Z,41.92
2023-03-28T17:48:44.756Z,44.60
2023-03-28T17:51:13.115Z,41.90
2023-03-28T17:53:42.692Z,42.70
2023-03-28T17:56:12.335Z,42.40
2023-03-28T17:58:40.192Z,43.95
2023-03-28T18:01:10.468Z,42.75
2023-03-28T18:03:40.236Z,43.05
2023-03-28T18:06:09.469Z,42.50
2023-03-28T18:08:37.777Z,43.10
2023-03-28T18:11:08.384Z,42.88
2023-03-28T18:13:37.593Z,41.70
2023-03-28T18:16:09.186Z,42.20
2023-03-28T18:18:39.068Z,43.35
2023-03-28T18:21:08.021Z,42.40
2023-03-28T18:23:36.898Z,42.53
2023-03-28T18:26:05.100Z,41.87
2023-03-28T18:28:33.478Z,42.45
2023-03-28T18:31:08.755Z,42.20
2023-03-28T18:33:36.667Z,42.30
2023-03-28T18:36:06.490Z,42.40
2023-03-28T18:38:38.208Z,43.78
2023-03-28T18:41:06.720Z,42.90
2023-03-28T18:43:34.798Z,41.87
2023-03-28T18:46:03.048Z,42.10
2023-03-28T18:48:31.614Z,41.90
2023-03-28T18:50:59.450Z,42.03
2023-03-28T18:53:29.554Z,41.80
2023-03-28T18:55:57.377Z,41.80
2023-03-28T18:58:26.031Z,41.92
2023-03-28T19:00:59.172Z,41.80
2023-03-28T19:03:27.974Z,41.90
2023-03-28T19:05:57.388Z,43.45
2023-03-28T19:08:26.291Z,42.70
2023-03-28T19:10:56.925Z,43.40
2023-03-28T19:13:25.566Z,43.60
2023-03-28T19:15:59.818Z,41.80
2023-03-28T19:18:28.392Z,41.60
2023-03-28T19:20:58.079Z,41.90
2023-03-28T19:23:27.199Z,41.88
2023-03-28T19:25:56.424Z,42.33
2023-03-28T19:28:25.250Z,42.40
2023-03-28T19:30:58.598Z,41.38
2023-03-28T19:33:26.489Z,41.97
2023-03-28T19:35:54.506Z,41.40
2023-03-28T19:38:23.103Z,43.13
2023-03-28T19:40:52.132Z,42.13
2023-03-28T19:43:23.752Z,42.00
2023-03-28T19:45:51.673Z,41.80
2023-03-28T19:48:19.813Z,41.58
2023-03-28T19:50:50.608Z,42.33
2023-03-28T19:53:18.420Z,41.40
2023-03-28T19:55:52.467Z,42.80
2023-03-28T19:58:21.782Z,42.65
2023-03-28T20:00:49.765Z,42.13
2023-03-28T20:03:18.116Z,41.97
2023-03-28T20:05:47.873Z,42.80
2023-03-28T20:08:17.309Z,43.20
2023-03-28T20:10:48.263Z,42.60
2023-03-28T20:13:16.974Z,42.97
2023-03-28T20:15:47.323Z,41.75
2023-03-28T20:18:19.565Z,42.17
2023-03-28T20:20:50.478Z,42.40
2023-03-28T20:23:20.076Z,42.33
2023-03-28T20:25:48.091Z,42.10
2023-03-28T20:28:16.364Z,42.20
2023-03-28T20:30:46.765Z,41.67
2023-03-28T20:33:14.877Z,41.80
2023-03-28T20:35:42.810Z,41.50
2023-03-28T20:38:10.905Z,41.90
2023-03-28T20:40:41.335Z,42.20
2023-03-28T20:43:10.088Z,41.22
2023-03-28T20:45:39.035Z,41.90
2023-03-28T20:48:10.340Z,42.30
2023-03-28T20:50:41.138Z,43.28
2023-03-28T20:53:09.089Z,41.50
2023-03-28T20:55:37.465Z,42.22
2023-03-28T20:58:05.315Z,42.70
2023-03-28T21:00:33.697Z,42.08
2023-03-28T21:03:03.310Z,43.60
2023-03-28T21:05:33.088Z,44.00
2023-03-28T21:08:02.107Z,43.50
2023-03-28T21:10:31.559Z,42.23
2023-03-28T21:12:59.460Z,42.22
2023-03-28T21:15:28.964Z,41.75
2023-03-28T21:17:56.839Z,41.90
2023-03-28T21:20:24.706Z,41.70
2023-03-28T21:22:54.140Z,41.45
2023-03-28T21:25:22.399Z,43.53
2023-03-28T21:27:50.543Z,42.60
2023-03-28T21:30:19.321Z,42.47
2023-03-28T21:32:47.885Z,43.85
2023-03-28T21:35:16.221Z,43.17
2023-03-28T21:37:44.101Z,42.97
2023-03-28T21:40:13.627Z,42.33
2023-03-28T21:42:41.678Z,42.80
2023-03-28T21:45:11.583Z,43.20
2023-03-28T21:47:41.380Z,43.20
2023-03-28T21:50:11.466Z,42.95
2023-03-28T21:52:41.013Z,43.35
2023-03-28T21:55:09.733Z,42.45
2023-03-28T21:57:38.882Z,42.88
2023-03-28T22:00:14.943Z,41.90
2023-03-28T22:02:43.361Z,42.77
2023-03-28T22:05:22.576Z,39.00
2023-03-28T22:07:56.497Z,39.83
2023-03-28T22:10:26.386Z,40.95
2023-03-28T22:12:58.612Z,41.80
2023-03-28T22:15:27.093Z,41.42
2023-03-28T22:17:57.833Z,40.58
2023-03-28T22:20:27.609Z,39.60
2023-03-28T22:23:00.265Z,40.30
2023-03-28T22:25:34.815Z,38.05
2023-03-28T22:28:04.951Z,37.53
2023-03-28T22:30:33.557Z,40.40
2023-03-28T22:33:02.366Z,39.50
2023-03-28T22:35:30.376Z,38.33
2023-03-28T22:37:58.304Z,39.65
2023-03-28T22:40:26.118Z,40.33
2023-03-28T22:42:54.741Z,40.20
2023-03-28T22:45:26.341Z,40.60
2023-03-28T22:47:54.566Z,41.47
2023-03-28T22:50:24.529Z,41.50
2023-03-28T22:52:52.616Z,37.67
2023-03-28T22:55:22.770Z,38.33
2023-03-28T22:57:52.405Z,45.67
2023-03-28T23:00:22.724Z,38.63
2023-03-28T23:02:52.727Z,39.80
2023-03-28T23:05:21.052Z,41.00
2023-03-28T23:07:50.544Z,37.80
2023-03-28T23:10:19.880Z,39.60
2023-03-28T23:12:48.859Z,40.55
2023-03-28T23:15:17.232Z,38.60
2023-03-28T23:17:45.611Z,41.33
2023-03-28T23:20:17.012Z,38.63
2023-03-28T23:22:46.285Z,39.40
2023-03-28T23:25:15.805Z,39.20
2023-03-28T23:27:44.184Z,40.60
2023-03-28T23:30:14.327Z,38.17
2023-03-28T23:32:42.393Z,37.83
2023-03-28T23:35:11.552Z,39.70
2023-03-28T23:37:40.977Z,38.83
2023-03-28T23:40:14.103Z,39.60
2023-03-28T23:42:44.163Z,38.53
2023-03-28T23:45:13.706Z,42.23
2023-03-28T23:47:41.622Z,41.67
2023-03-28T23:50:11.004Z,39.00
2023-03-28T23:52:40.316Z,39.27
2023-03-28T23:55:09.847Z,39.50
2023-03-28T23:57:37.744Z,41.60
